sensor_id;sensor_type;location;lat;lon;timestamp;pressure;altitude;pressure_sealevel;temperature;humidity
62655;BME280;48717;55.556;37.816;2023-07-31T00:02:04;98623.00;;;15.61;77.20
62655;BME280;48717;55.556;37.816;2023-07-31T00:04:31;98652.53;;;15.76;76.60
62655;BME280;48717;55.556;37.816;2023-07-31T00:06:58;98634.19;;;15.70;76.13
62655;BME280;48717;55.556;37.816;2023-07-31T00:09:25;98664.53;;;15.86;76.10
62655;BME280;48717;55.556;37.816;2023-07-31T00:11:52;98646.97;;;15.82;75.67
62655;BME280;48717;55.556;37.816;2023-07-31T00:14:19;98636.47;;;15.79;75.80
62655;BME280;48717;55.556;37.816;2023-07-31T00:16:46;98653.75;;;15.89;75.39
62655;BME280;48717;55.556;37.816;2023-07-31T00:19:17;98651.06;;;15.89;75.54
62655;BME280;48717;55.556;37.816;2023-07-31T00:21:44;98664.88;;;15.99;75.74
62655;BME280;48717;55.556;37.816;2023-07-31T00:24:11;98667.97;;;15.88;76.33
62655;BME280;48717;55.556;37.816;2023-07-31T00:26:38;98649.19;;;15.71;76.45
62655;BME280;48717;55.556;37.816;2023-07-31T00:29:06;98660.31;;;15.81;76.15
62655;BME280;48717;55.556;37.816;2023-07-31T00:31:33;98643.09;;;15.69;76.26
62655;BME280;48717;55.556;37.816;2023-07-31T00:34:00;98632.63;;;15.64;76.50
62655;BME280;48717;55.556;37.816;2023-07-31T00:36:27;98656.22;;;15.72;76.91
62655;BME280;48717;55.556;37.816;2023-07-31T00:38:54;98647.28;;;15.52;77.95
62655;BME280;48717;55.556;37.816;2023-07-31T00:41:21;98671.19;;;15.52;78.32
62655;BME280;48717;55.556;37.816;2023-07-31T00:43:49;98636.94;;;15.22;78.79
62655;BME280;48717;55.556;37.816;2023-07-31T00:46:16;98664.88;;;15.32;80.27
62655;BME280;48717;55.556;37.816;2023-07-31T00:48:43;98649.66;;;15.13;80.48
62655;BME280;48717;55.556;37.816;2023-07-31T00:51:10;98654.19;;;15.11;80.99
62655;BME280;48717;55.556;37.816;2023-07-31T00:53:38;98660.22;;;15.15;81.31
62655;BME280;48717;55.556;37.816;2023-07-31T00:56:08;98622.22;;;14.91;81.16
62655;BME280;48717;55.556;37.816;2023-07-31T00:58:35;98656.94;;;15.08;81.56
62655;BME280;48717;55.556;37.816;2023-07-31T01:01:02;98655.22;;;15.07;81.52
62655;BME280;48717;55.556;37.816;2023-07-31T01:03:30;98659.66;;;15.07;81.79
62655;BME280;48717;55.556;37.816;2023-07-31T01:06:18;98656.94;;;15.08;81.79
62655;BME280;48717;55.556;37.816;2023-07-31T01:09:00;98650.69;;;15.09;81.54
62655;BME280;48717;55.556;37.816;2023-07-31T01:11:42;98655.06;;;15.10;81.72
62655;BME280;48717;55.556;37.816;2023-07-31T01:14:10;98650.66;;;15.11;80.92
62655;BME280;48717;55.556;37.816;2023-07-31T01:16:37;98627.53;;;14.91;81.72
62655;BME280;48717;55.556;37.816;2023-07-31T01:19:06;98654.34;;;15.07;81.61
62655;BME280;48717;55.556;37.816;2023-07-31T01:30:11;98661.16;;;15.14;80.66
62655;BME280;48717;55.556;37.816;2023-07-31T01:32:46;98653.13;;;15.16;80.77
62655;BME280;48717;55.556;37.816;2023-07-31T01:35:15;98626.81;;;15.09;79.83
62655;BME280;48717;55.556;37.816;2023-07-31T01:37:42;98659.13;;;15.21;80.62
62655;BME280;48717;55.556;37.816;2023-07-31T01:40:09;98656.59;;;15.18;80.37
62655;BME280;48717;55.556;37.816;2023-07-31T01:42:36;98652.00;;;15.21;80.87
62655;BME280;48717;55.556;37.816;2023-07-31T01:45:04;98645.38;;;15.09;80.73
62655;BME280;48717;55.556;37.816;2023-07-31T01:47:31;98612.53;;;14.90;80.13
62655;BME280;48717;55.556;37.816;2023-07-31T01:49:58;98646.06;;;15.14;80.76
62655;BME280;48717;55.556;37.816;2023-07-31T01:52:25;98647.94;;;15.12;80.66
62655;BME280;48717;55.556;37.816;2023-07-31T01:54:53;98654.75;;;15.20;79.72
62655;BME280;48717;55.556;37.816;2023-07-31T01:57:20;98653.81;;;15.21;80.17
62655;BME280;48717;55.556;37.816;2023-07-31T01:59:47;98632.22;;;15.06;80.46
62655;BME280;48717;55.556;37.816;2023-07-31T02:02:14;98609.72;;;14.93;80.47
62655;BME280;48717;55.556;37.816;2023-07-31T02:04:42;98647.94;;;15.12;80.45
62655;BME280;48717;55.556;37.816;2023-07-31T02:07:09;98644.47;;;15.10;80.82
62655;BME280;48717;55.556;37.816;2023-07-31T02:09:36;98641.13;;;15.05;80.45
62655;BME280;48717;55.556;37.816;2023-07-31T02:12:03;98654.59;;;15.23;80.17
62655;BME280;48717;55.556;37.816;2023-07-31T02:14:30;98654.84;;;15.17;79.93
62655;BME280;48717;55.556;37.816;2023-07-31T02:16:59;98665.22;;;15.23;80.13
62655;BME280;48717;55.556;37.816;2023-07-31T02:19:27;98660.78;;;15.23;80.23
62655;BME280;48717;55.556;37.816;2023-07-31T02:21:54;98665.22;;;15.23;79.89
62655;BME280;48717;55.556;37.816;2023-07-31T02:24:22;98665.13;;;15.26;79.75
62655;BME280;48717;55.556;37.816;2023-07-31T02:26:50;98650.22;;;15.22;79.84
62655;BME280;48717;55.556;37.816;2023-07-31T02:29:17;98660.78;;;15.23;79.99
62655;BME280;48717;55.556;37.816;2023-07-31T02:31:44;98626.13;;;15.04;80.02
62655;BME280;48717;55.556;37.816;2023-07-31T02:34:11;98659.44;;;15.35;79.40
62655;BME280;48717;55.556;37.816;2023-07-31T02:36:38;98663.81;;;15.36;79.19
62655;BME280;48717;55.556;37.816;2023-07-31T02:39:07;98653.19;;;15.36;79.34
62655;BME280;48717;55.556;37.816;2023-07-31T02:41:34;98662.00;;;15.38;79.24
62655;BME280;48717;55.556;37.816;2023-07-31T02:44:01;98667.25;;;15.40;78.39
62655;BME280;48717;55.556;37.816;2023-07-31T02:46:28;98660.81;;;15.46;78.67
62655;BME280;48717;55.556;37.816;2023-07-31T02:48:55;98667.00;;;15.46;78.10
62655;BME280;48717;55.556;37.816;2023-07-31T02:51:22;98670.56;;;15.45;78.42
62655;BME280;48717;55.556;37.816;2023-07-31T02:53:49;98671.31;;;15.49;78.07
62655;BME280;48717;55.556;37.816;2023-07-31T02:56:16;98653.75;;;15.45;78.96
62655;BME280;48717;55.556;37.816;2023-07-31T02:58:43;98671.19;;;15.52;78.77
62655;BME280;48717;55.556;37.816;2023-07-31T03:01:11;98618.94;;;15.30;78.51
62655;BME280;48717;55.556;37.816;2023-07-31T03:03:38;98671.19;;;15.52;78.32
62655;BME280;48717;55.556;37.816;2023-07-31T03:06:05;98656.88;;;15.56;78.60
62655;BME280;48717;55.556;37.816;2023-07-31T03:08:32;98663.84;;;15.59;78.24
62655;BME280;48717;55.556;37.816;2023-07-31T03:11:00;98660.19;;;15.61;78.35
62655;BME280;48717;55.556;37.816;2023-07-31T03:13:27;98660.94;;;15.65;77.78
62655;BME280;48717;55.556;37.816;2023-07-31T03:15:54;98661.53;;;15.72;77.48
62655;BME280;48717;55.556;37.816;2023-07-31T03:18:21;98669.34;;;15.76;77.36
62655;BME280;48717;55.556;37.816;2023-07-31T03:20:48;98659.44;;;15.80;77.37
62655;BME280;48717;55.556;37.816;2023-07-31T03:23:16;98659.19;;;15.86;77.76
62655;BME280;48717;55.556;37.816;2023-07-31T03:26:06;98650.81;;;15.97;77.45
62655;BME280;48717;55.556;37.816;2023-07-31T03:28:33;98650.53;;;16.03;76.91
62655;BME280;48717;55.556;37.816;2023-07-31T03:31:00;98637.44;;;15.99;77.35
62655;BME280;48717;55.556;37.816;2023-07-31T03:33:29;98648.50;;;16.10;77.18
62655;BME280;48717;55.556;37.816;2023-07-31T03:35:56;98646.94;;;16.04;77.42
62655;BME280;48717;55.556;37.816;2023-07-31T03:38:24;98647.66;;;16.08;77.26
62655;BME280;48717;55.556;37.816;2023-07-31T03:40:53;98645.00;;;16.08;77.14
62655;BME280;48717;55.556;37.816;2023-07-31T03:43:20;98623.22;;;16.00;77.67
62655;BME280;48717;55.556;37.816;2023-07-31T03:45:47;98642.91;;;16.16;77.54
62655;BME280;48717;55.556;37.816;2023-07-31T03:48:15;98655.66;;;16.29;77.55
62655;BME280;48717;55.556;37.816;2023-07-31T03:50:43;98654.41;;;16.38;77.48
62655;BME280;48717;55.556;37.816;2023-07-31T03:53:10;98663.78;;;16.47;77.30
62655;BME280;48717;55.556;37.816;2023-07-31T03:55:37;98657.38;;;16.51;78.24
62655;BME280;48717;55.556;37.816;2023-07-31T03:58:04;98644.97;;;16.51;78.36
62655;BME280;48717;55.556;37.816;2023-07-31T04:00:31;98619.63;;;16.42;78.47
62655;BME280;48717;55.556;37.816;2023-07-31T04:02:59;98635.63;;;16.62;77.95
62655;BME280;48717;55.556;37.816;2023-07-31T04:05:26;98664.00;;;16.82;77.21
62655;BME280;48717;55.556;37.816;2023-07-31T04:07:53;98659.97;;;16.92;77.37
62655;BME280;48717;55.556;37.816;2023-07-31T04:10:20;98672.06;;;17.00;76.27
62655;BME280;48717;55.556;37.816;2023-07-31T04:12:47;98678.91;;;17.07;75.90
62655;BME280;48717;55.556;37.816;2023-07-31T04:15:14;98673.28;;;17.13;75.95
62655;BME280;48717;55.556;37.816;2023-07-31T04:17:42;98669.22;;;17.23;75.24
62655;BME280;48717;55.556;37.816;2023-07-31T04:20:09;98674.16;;;17.33;73.87
62655;BME280;48717;55.556;37.816;2023-07-31T04:22:36;98669.16;;;17.44;73.40
62655;BME280;48717;55.556;37.816;2023-07-31T04:25:04;98674.22;;;17.51;71.53
62655;BME280;48717;55.556;37.816;2023-07-31T04:27:31;98662.16;;;17.61;70.52
62655;BME280;48717;55.556;37.816;2023-07-31T04:29:58;98644.00;;;17.69;69.71
62655;BME280;48717;55.556;37.816;2023-07-31T04:32:25;98678.13;;;18.17;67.37
62655;BME280;48717;55.556;37.816;2023-07-31T04:34:52;98639.81;;;18.36;65.75
62655;BME280;48717;55.556;37.816;2023-07-31T04:37:19;98671.09;;;19.01;64.85
62655;BME280;48717;55.556;37.816;2023-07-31T04:39:46;98664.41;;;19.26;64.14
62655;BME280;48717;55.556;37.816;2023-07-31T04:42:13;98663.88;;;19.36;63.98
62655;BME280;48717;55.556;37.816;2023-07-31T04:44:41;98670.34;;;19.48;63.38
62655;BME280;48717;55.556;37.816;2023-07-31T04:47:08;98672.41;;;19.59;63.91
62655;BME280;48717;55.556;37.816;2023-07-31T04:49:35;98642.06;;;19.60;63.02
62655;BME280;48717;55.556;37.816;2023-07-31T04:52:02;98669.28;;;19.99;61.93
62655;BME280;48717;55.556;37.816;2023-07-31T04:54:29;98671.94;;;20.29;61.69
62655;BME280;48717;55.556;37.816;2023-07-31T04:56:57;98663.88;;;20.45;60.31
62655;BME280;48717;55.556;37.816;2023-07-31T04:59:24;98670.31;;;20.72;59.77
62655;BME280;48717;55.556;37.816;2023-07-31T05:01:51;98659.66;;;21.01;59.26
62655;BME280;48717;55.556;37.816;2023-07-31T05:04:18;98667.47;;;21.19;57.81
62655;BME280;48717;55.556;37.816;2023-07-31T05:06:45;98679.47;;;21.55;57.33
62655;BME280;48717;55.556;37.816;2023-07-31T05:09:13;98671.13;;;21.74;56.27
62655;BME280;48717;55.556;37.816;2023-07-31T05:11:40;98665.59;;;21.90;55.29
62655;BME280;48717;55.556;37.816;2023-07-31T05:14:09;98658.44;;;22.04;55.59
62655;BME280;48717;55.556;37.816;2023-07-31T05:16:36;98658.25;;;22.20;54.49
62655;BME280;48717;55.556;37.816;2023-07-31T05:19:04;98657.34;;;22.60;53.57
62655;BME280;48717;55.556;37.816;2023-07-31T05:21:31;98651.50;;;23.05;51.87
62655;BME280;48717;55.556;37.816;2023-07-31T05:23:58;98670.84;;;23.61;50.74
62655;BME280;48717;55.556;37.816;2023-07-31T05:26:25;98674.53;;;23.60;50.77
62655;BME280;48717;55.556;37.816;2023-07-31T05:28:52;98653.28;;;23.93;50.27
62655;BME280;48717;55.556;37.816;2023-07-31T05:31:19;98664.63;;;24.09;49.33
62655;BME280;48717;55.556;37.816;2023-07-31T05:33:49;98663.03;;;24.43;48.09
62655;BME280;48717;55.556;37.816;2023-07-31T05:36:17;98659.16;;;24.81;48.08
62655;BME280;48717;55.556;37.816;2023-07-31T05:38:44;98666.44;;;25.15;46.61
62655;BME280;48717;55.556;37.816;2023-07-31T05:41:12;98672.31;;;25.32;45.00
62655;BME280;48717;55.556;37.816;2023-07-31T05:43:39;98665.66;;;25.47;43.76
62655;BME280;48717;55.556;37.816;2023-07-31T05:46:07;98667.28;;;25.94;42.77
62655;BME280;48717;55.556;37.816;2023-07-31T05:48:36;98641.44;;;26.01;41.91
62655;BME280;48717;55.556;37.816;2023-07-31T05:51:03;98639.59;;;26.35;41.67
62655;BME280;48717;55.556;37.816;2023-07-31T05:53:30;98677.22;;;26.69;40.12
62655;BME280;48717;55.556;37.816;2023-07-31T05:55:57;98672.59;;;26.81;40.64
62655;BME280;48717;55.556;37.816;2023-07-31T05:58:24;98670.41;;;27.27;39.91
62655;BME280;48717;55.556;37.816;2023-07-31T06:00:52;98667.75;;;27.47;37.81
62655;BME280;48717;55.556;37.816;2023-07-31T06:03:19;98670.81;;;27.83;36.50
62655;BME280;48717;55.556;37.816;2023-07-31T06:05:46;98638.91;;;28.17;36.97
62655;BME280;48717;55.556;37.816;2023-07-31T06:08:13;98635.16;;;28.37;36.69
62655;BME280;48717;55.556;37.816;2023-07-31T06:10:40;98653.97;;;28.69;35.14
62655;BME280;48717;55.556;37.816;2023-07-31T06:13:07;98647.69;;;28.68;33.59
62655;BME280;48717;55.556;37.816;2023-07-31T06:15:35;98671.97;;;28.10;32.49
62655;BME280;48717;55.556;37.816;2023-07-31T06:18:02;98650.31;;;27.91;33.61
62655;BME280;48717;55.556;37.816;2023-07-31T06:20:30;98678.84;;;28.05;33.94
62655;BME280;48717;55.556;37.816;2023-07-31T06:22:57;98673.97;;;28.48;32.48
62655;BME280;48717;55.556;37.816;2023-07-31T06:25:24;98675.22;;;28.63;31.89
62655;BME280;48717;55.556;37.816;2023-07-31T06:27:51;98651.34;;;28.77;32.10
62655;BME280;48717;55.556;37.816;2023-07-31T06:30:18;98654.16;;;29.05;30.33
62655;BME280;48717;55.556;37.816;2023-07-31T06:32:45;98644.19;;;28.96;29.89
62655;BME280;48717;55.556;37.816;2023-07-31T06:35:12;98650.75;;;29.49;29.54
62655;BME280;48717;55.556;37.816;2023-07-31T06:37:39;98663.25;;;29.70;30.33
62655;BME280;48717;55.556;37.816;2023-07-31T06:40:07;98648.91;;;30.14;29.18
62655;BME280;48717;55.556;37.816;2023-07-31T06:42:36;98646.31;;;30.31;28.93
62655;BME280;48717;55.556;37.816;2023-07-31T06:45:03;98665.47;;;30.47;29.13
62655;BME280;48717;55.556;37.816;2023-07-31T06:47:32;98676.13;;;30.67;29.06
62655;BME280;48717;55.556;37.816;2023-07-31T06:50:00;98682.53;;;30.76;28.68
62655;BME280;48717;55.556;37.816;2023-07-31T06:52:30;98643.28;;;30.79;28.63
62655;BME280;48717;55.556;37.816;2023-07-31T06:55:04;98642.41;;;30.52;28.67
62655;BME280;48717;55.556;37.816;2023-07-31T06:57:47;98648.25;;;30.65;29.67
62655;BME280;48717;55.556;37.816;2023-07-31T07:00:14;98646.91;;;30.96;27.19
62655;BME280;48717;55.556;37.816;2023-07-31T07:02:42;98667.47;;;31.68;26.54
62655;BME280;48717;55.556;37.816;2023-07-31T07:05:09;98666.19;;;32.06;26.04
62655;BME280;48717;55.556;37.816;2023-07-31T07:07:37;98674.75;;;32.44;25.54
62655;BME280;48717;55.556;37.816;2023-07-31T07:10:04;98667.41;;;32.61;25.15
62655;BME280;48717;55.556;37.816;2023-07-31T07:12:32;98666.53;;;32.27;24.03
62655;BME280;48717;55.556;37.816;2023-07-31T07:15:00;98670.63;;;32.32;24.61
62655;BME280;48717;55.556;37.816;2023-07-31T07:17:31;98680.03;;;32.54;24.66
62655;BME280;48717;55.556;37.816;2023-07-31T07:20:00;98667.34;;;32.78;24.18
62655;BME280;48717;55.556;37.816;2023-07-31T07:22:30;98648.69;;;32.98;23.67
62655;BME280;48717;55.556;37.816;2023-07-31T07:24:59;98656.31;;;32.38;24.32
62655;BME280;48717;55.556;37.816;2023-07-31T07:27:30;98681.63;;;33.13;22.56
62655;BME280;48717;55.556;37.816;2023-07-31T07:29:57;98657.72;;;33.15;22.74
62655;BME280;48717;55.556;37.816;2023-07-31T07:32:24;98640.47;;;33.23;22.74
62655;BME280;48717;55.556;37.816;2023-07-31T07:34:52;98673.56;;;33.92;21.03
62655;BME280;48717;55.556;37.816;2023-07-31T07:37:19;98680.63;;;34.09;20.94
62655;BME280;48717;55.556;37.816;2023-07-31T07:39:46;98683.97;;;34.58;20.33
62655;BME280;48717;55.556;37.816;2023-07-31T07:42:13;98682.19;;;34.27;19.90
62655;BME280;48717;55.556;37.816;2023-07-31T07:44:40;98693.53;;;34.24;20.00
62655;BME280;48717;55.556;37.816;2023-07-31T07:47:07;98687.66;;;34.27;21.75
62655;BME280;48717;55.556;37.816;2023-07-31T07:49:35;98662.19;;;34.11;21.69
62655;BME280;48717;55.556;37.816;2023-07-31T07:52:04;98696.47;;;33.11;21.44
62655;BME280;48717;55.556;37.816;2023-07-31T07:54:31;98688.50;;;33.41;21.67
62655;BME280;48717;55.556;37.816;2023-07-31T07:56:59;98675.72;;;33.73;21.31
62655;BME280;48717;55.556;37.816;2023-07-31T07:59:26;98687.16;;;34.00;21.57
62655;BME280;48717;55.556;37.816;2023-07-31T08:01:53;98687.72;;;33.95;21.48
62655;BME280;48717;55.556;37.816;2023-07-31T08:04:20;98673.50;;;34.47;21.07
62655;BME280;48717;55.556;37.816;2023-07-31T08:06:48;98697.16;;;34.40;21.10
62655;BME280;48717;55.556;37.816;2023-07-31T08:09:15;98681.50;;;34.10;20.64
62655;BME280;48717;55.556;37.816;2023-07-31T08:11:42;98693.94;;;34.13;20.82
62655;BME280;48717;55.556;37.816;2023-07-31T08:14:09;98692.28;;;34.03;20.20
62655;BME280;48717;55.556;37.816;2023-07-31T08:16:37;98703.94;;;33.97;20.33
62655;BME280;48717;55.556;37.816;2023-07-31T08:19:05;98703.91;;;33.33;21.18
62655;BME280;48717;55.556;37.816;2023-07-31T08:21:32;98672.47;;;33.38;20.90
62655;BME280;48717;55.556;37.816;2023-07-31T08:23:59;98683.97;;;33.65;21.71
62655;BME280;48717;55.556;37.816;2023-07-31T08:26:26;98695.72;;;33.25;22.07
62655;BME280;48717;55.556;37.816;2023-07-31T08:28:53;98670.16;;;33.26;21.47
62655;BME280;48717;55.556;37.816;2023-07-31T08:31:21;98696.50;;;33.59;21.63
62655;BME280;48717;55.556;37.816;2023-07-31T08:33:48;98688.56;;;33.24;21.83
62655;BME280;48717;55.556;37.816;2023-07-31T08:36:15;98705.91;;;33.80;20.72
62655;BME280;48717;55.556;37.816;2023-07-31T08:38:42;98703.94;;;33.97;20.71
62655;BME280;48717;55.556;37.816;2023-07-31T08:41:09;98693.00;;;34.44;20.98
62655;BME280;48717;55.556;37.816;2023-07-31T08:43:37;98699.09;;;34.07;21.44
62655;BME280;48717;55.556;37.816;2023-07-31T08:46:05;98691.91;;;34.30;21.50
62655;BME280;48717;55.556;37.816;2023-07-31T08:48:33;98699.53;;;34.81;20.21
62655;BME280;48717;55.556;37.816;2023-07-31T08:51:02;98665.75;;;35.04;19.98
62655;BME280;48717;55.556;37.816;2023-07-31T08:53:29;98708.59;;;34.97;20.11
62655;BME280;48717;55.556;37.816;2023-07-31T08:56:00;98680.31;;;35.20;19.84
62655;BME280;48717;55.556;37.816;2023-07-31T08:58:41;98713.94;;;35.13;18.76
62655;BME280;48717;55.556;37.816;2023-07-31T09:01:43;98581.88;;;34.04;19.54
62655;BME280;48717;55.556;37.816;2023-07-31T09:04:48;98707.28;;;34.54;20.59
62655;BME280;48717;55.556;37.816;2023-07-31T09:07:16;98628.22;;;33.74;20.72
62655;BME280;48717;55.556;37.816;2023-07-31T09:09:45;98653.69;;;33.75;21.11
62655;BME280;48717;55.556;37.816;2023-07-31T09:12:12;98666.91;;;33.94;20.57
62655;BME280;48717;55.556;37.816;2023-07-31T09:14:40;98688.50;;;34.04;20.72
62655;BME280;48717;55.556;37.816;2023-07-31T09:17:08;98703.22;;;34.03;20.43
62655;BME280;48717;55.556;37.816;2023-07-31T09:19:36;98676.84;;;33.55;21.98
62655;BME280;48717;55.556;37.816;2023-07-31T09:22:06;98687.31;;;33.83;21.89
62655;BME280;48717;55.556;37.816;2023-07-31T09:24:34;98697.75;;;34.03;20.82
62655;BME280;48717;55.556;37.816;2023-07-31T09:27:01;98696.56;;;34.29;21.30
62655;BME280;48717;55.556;37.816;2023-07-31T09:29:29;98680.38;;;34.43;20.49
62655;BME280;48717;55.556;37.816;2023-07-31T09:31:56;98685.44;;;34.69;19.77
62655;BME280;48717;55.556;37.816;2023-07-31T09:34:36;98695.91;;;34.66;20.00
62655;BME280;48717;55.556;37.816;2023-07-31T09:37:05;98703.22;;;34.88;19.64
62655;BME280;48717;55.556;37.816;2023-07-31T09:39:32;98705.28;;;34.48;20.10
62655;BME280;48717;55.556;37.816;2023-07-31T09:41:59;98704.72;;;34.76;20.33
62655;BME280;48717;55.556;37.816;2023-07-31T09:44:40;98705.22;;;34.95;19.24
62655;BME280;48717;55.556;37.816;2023-07-31T09:47:22;98711.50;;;34.80;19.42
62655;BME280;48717;55.556;37.816;2023-07-31T09:49:53;98702.38;;;35.03;19.26
62655;BME280;48717;55.556;37.816;2023-07-31T09:52:21;98681.91;;;34.60;20.34
62655;BME280;48717;55.556;37.816;2023-07-31T09:54:48;98704.63;;;33.67;20.79
62655;BME280;48717;55.556;37.816;2023-07-31T09:57:16;98702.97;;;33.10;20.74
62655;BME280;48717;55.556;37.816;2023-07-31T09:59:47;98694.88;;;32.51;22.12
62655;BME280;48717;55.556;37.816;2023-07-31T10:02:20;98699.59;;;32.16;23.71
62655;BME280;48717;55.556;37.816;2023-07-31T10:04:49;98713.75;;;31.60;23.80
62655;BME280;48717;55.556;37.816;2023-07-31T10:07:18;98702.31;;;31.99;23.13
62655;BME280;48717;55.556;37.816;2023-07-31T10:09:45;98676.09;;;32.56;21.79
62655;BME280;48717;55.556;37.816;2023-07-31T10:12:14;98688.16;;;33.44;22.33
62655;BME280;48717;55.556;37.816;2023-07-31T10:14:44;98673.06;;;34.20;20.54
62655;BME280;48717;55.556;37.816;2023-07-31T10:17:12;98701.25;;;34.59;20.68
62655;BME280;48717;55.556;37.816;2023-07-31T10:19:41;98679.34;;;34.82;19.72
62655;BME280;48717;55.556;37.816;2023-07-31T10:22:09;98680.09;;;35.06;19.45
62655;BME280;48717;55.556;37.816;2023-07-31T10:24:39;98707.84;;;35.48;19.17
62655;BME280;48717;55.556;37.816;2023-07-31T10:27:07;98689.47;;;35.27;19.15
62655;BME280;48717;55.556;37.816;2023-07-31T10:29:35;98705.22;;;34.56;20.37
62655;BME280;48717;55.556;37.816;2023-07-31T10:32:03;98714.25;;;33.86;19.99
62655;BME280;48717;55.556;37.816;2023-07-31T10:34:34;98709.97;;;32.87;22.22
62655;BME280;48717;55.556;37.816;2023-07-31T10:37:22;98709.41;;;31.84;23.49
62655;BME280;48717;55.556;37.816;2023-07-31T10:40:18;98708.69;;;31.73;23.51
62655;BME280;48717;55.556;37.816;2023-07-31T10:42:52;98708.44;;;31.50;24.16
62655;BME280;48717;55.556;37.816;2023-07-31T10:45:36;98713.19;;;31.13;25.11
62655;BME280;48717;55.556;37.816;2023-07-31T10:48:12;98714.75;;;31.16;24.20
62655;BME280;48717;55.556;37.816;2023-07-31T10:50:55;98716.22;;;31.10;24.90
62655;BME280;48717;55.556;37.816;2023-07-31T10:53:28;98720.81;;;31.36;24.32
62655;BME280;48717;55.556;37.816;2023-07-31T10:56:08;98708.63;;;32.25;23.14
62655;BME280;48717;55.556;37.816;2023-07-31T10:58:37;98706.81;;;33.72;22.01
62655;BME280;48717;55.556;37.816;2023-07-31T11:01:05;98693.25;;;34.34;21.33
62655;BME280;48717;55.556;37.816;2023-07-31T11:03:50;98700.19;;;33.98;21.38
62655;BME280;48717;55.556;37.816;2023-07-31T11:06:20;98716.66;;;32.43;22.98
62655;BME280;48717;55.556;37.816;2023-07-31T11:08:49;98701.41;;;31.39;24.00
62655;BME280;48717;55.556;37.816;2023-07-31T11:11:17;98691.06;;;30.63;25.08
62655;BME280;48717;55.556;37.816;2023-07-31T11:13:50;98724.31;;;30.12;26.59
62655;BME280;48717;55.556;37.816;2023-07-31T11:16:23;98704.00;;;30.06;26.58
62655;BME280;48717;55.556;37.816;2023-07-31T11:18:52;98711.13;;;30.07;27.72
62655;BME280;48717;55.556;37.816;2023-07-31T11:21:23;98704.63;;;30.00;27.61
62655;BME280;48717;55.556;37.816;2023-07-31T11:23:53;98692.22;;;29.98;27.45
62655;BME280;48717;55.556;37.816;2023-07-31T11:26:25;98706.13;;;30.31;26.66
62655;BME280;48717;55.556;37.816;2023-07-31T11:28:52;98707.28;;;31.52;25.18
62655;BME280;48717;55.556;37.816;2023-07-31T11:31:19;98701.69;;;32.64;23.78
62655;BME280;48717;55.556;37.816;2023-07-31T11:33:47;98670.56;;;33.55;23.43
62655;BME280;48717;55.556;37.816;2023-07-31T11:36:16;98694.81;;;34.75;21.27
62655;BME280;48717;55.556;37.816;2023-07-31T11:38:44;98688.22;;;34.99;20.67
62655;BME280;48717;55.556;37.816;2023-07-31T11:41:14;98682.66;;;34.54;20.85
62655;BME280;48717;55.556;37.816;2023-07-31T11:43:45;98691.16;;;34.21;21.58
62655;BME280;48717;55.556;37.816;2023-07-31T11:46:13;98700.66;;;33.38;21.85
62655;BME280;48717;55.556;37.816;2023-07-31T11:48:42;98701.31;;;32.42;22.92
62655;BME280;48717;55.556;37.816;2023-07-31T11:51:14;98707.88;;;31.38;24.75
62655;BME280;48717;55.556;37.816;2023-07-31T11:53:51;98706.84;;;30.33;25.72
62655;BME280;48717;55.556;37.816;2023-07-31T11:56:20;98722.09;;;29.13;28.09
62655;BME280;48717;55.556;37.816;2023-07-31T11:58:55;98702.78;;;29.16;27.81
62655;BME280;48717;55.556;37.816;2023-07-31T12:01:24;98704.31;;;29.29;27.95
62655;BME280;48717;55.556;37.816;2023-07-31T12:03:55;98714.38;;;28.51;28.90
62655;BME280;48717;55.556;37.816;2023-07-31T12:06:34;98719.41;;;28.84;29.46
62655;BME280;48717;55.556;37.816;2023-07-31T12:09:04;98724.88;;;28.64;28.18
62655;BME280;48717;55.556;37.816;2023-07-31T12:11:43;98694.06;;;28.55;28.56
62655;BME280;48717;55.556;37.816;2023-07-31T12:14:27;98720.97;;;29.06;27.91
62655;BME280;48717;55.556;37.816;2023-07-31T12:17:04;98715.09;;;29.49;27.33
62655;BME280;48717;55.556;37.816;2023-07-31T12:19:31;98725.56;;;29.72;27.35
62655;BME280;48717;55.556;37.816;2023-07-31T12:21:59;98711.63;;;30.03;26.18
62655;BME280;48717;55.556;37.816;2023-07-31T12:24:27;98702.31;;;30.86;25.12
62655;BME280;48717;55.556;37.816;2023-07-31T12:26:54;98704.34;;;32.14;24.30
62655;BME280;48717;55.556;37.816;2023-07-31T12:29:22;98705.84;;;33.65;22.14
62655;BME280;48717;55.556;37.816;2023-07-31T12:31:49;98707.28;;;34.93;20.94
62655;BME280;48717;55.556;37.816;2023-07-31T12:34:17;98715.22;;;35.02;20.20
62655;BME280;48717;55.556;37.816;2023-07-31T12:36:45;98715.69;;;34.53;21.04
62655;BME280;48717;55.556;37.816;2023-07-31T12:39:12;98693.59;;;35.08;21.40
62655;BME280;48717;55.556;37.816;2023-07-31T12:41:39;98692.03;;;35.80;20.26
62655;BME280;48717;55.556;37.816;2023-07-31T12:44:07;98720.06;;;35.98;20.64
62655;BME280;48717;55.556;37.816;2023-07-31T12:46:34;98684.25;;;36.21;19.86
62655;BME280;48717;55.556;37.816;2023-07-31T12:49:02;98710.69;;;36.51;19.43
62655;BME280;48717;55.556;37.816;2023-07-31T12:51:29;98723.09;;;35.21;21.13
62655;BME280;48717;55.556;37.816;2023-07-31T12:53:56;98703.50;;;34.17;21.60
62655;BME280;48717;55.556;37.816;2023-07-31T12:56:23;98694.13;;;34.34;21.16
62655;BME280;48717;55.556;37.816;2023-07-31T12:58:50;98716.63;;;34.83;21.04
62655;BME280;48717;55.556;37.816;2023-07-31T13:01:17;98721.44;;;35.87;19.96
62655;BME280;48717;55.556;37.816;2023-07-31T13:03:45;98713.50;;;35.77;19.92
62655;BME280;48717;55.556;37.816;2023-07-31T13:06:12;98725.81;;;35.51;20.12
62655;BME280;48717;55.556;37.816;2023-07-31T13:08:39;98701.25;;;35.95;19.44